Time;durP1;ratioP1;P1;durP2;ratioP2;P2;SDS_P1;SDS_P2;PMS_P1;PMS_P2;Temp;Humidity;BMP_temperature;BMP_pressure;BME280_temperature;BME280_humidity;BME280_pressure;Samples;Min_cycle;Max_cycle;Signal;HPM_P1;HPM_P2
2024/02/29 00:00:34;;;;;;;18.10;6.90;;;;;;;9.73;44.35;100408.30;104670;1262;69650;-65
2024/02/29 00:03:47;;;;;;;23.60;6.80;;;;;;;9.64;44.57;100400.83;104530;1256;71345;-64
2024/02/29 00:07:06;;;;;;;15.70;6.80;;;;;;;9.54;44.94;100399.70;104354;1256;60590;-64
2024/02/29 00:10:26;;;;;;;18.40;6.90;;;;;;;9.53;44.93;100396.41;104750;1262;62768;-65
2024/02/29 00:13:45;;;;;;;20.00;6.50;;;;;;;9.73;44.49;100398.14;105350;1256;73680;-65
2024/02/29 00:17:05;;;;;;;17.80;7.40;;;;;;;9.75;44.70;100397.75;104237;1260;70340;-64
2024/02/29 00:20:26;;;;;;;12.80;5.90;;;;;;;9.77;44.63;100397.52;104210;1260;73726;-64
2024/02/29 00:23:43;;;;;;;14.70;7.20;;;;;;;9.75;44.52;100393.90;104678;1258;62110;-66
2024/02/29 00:27:03;;;;;;;16.60;6.40;;;;;;;9.62;44.83;100393.38;105051;1256;60238;-66
2024/02/29 00:30:23;;;;;;;15.60;6.70;;;;;;;9.56;44.90;100387.05;104171;1260;73034;-67
2024/02/29 00:33:43;;;;;;;14.50;5.90;;;;;;;9.38;45.20;100394.88;104157;1270;70164;-67
2024/02/29 00:37:00;;;;;;;17.80;6.40;;;;;;;9.60;45.07;100395.52;104129;1269;72275;-66
2024/02/29 00:40:14;;;;;;;13.20;5.50;;;;;;;9.65;44.77;100392.06;104274;1256;62824;-69
2024/02/29 00:43:33;;;;;;;24.40;6.40;;;;;;;10.01;44.18;100383.91;104753;1261;59883;-66
2024/02/29 00:46:08;;;;;;;18.20;5.80;;;;;;;10.11;43.94;100381.34;104469;1258;75491;-62
2024/02/29 00:49:20;;;;;;;17.20;6.00;;;;;;;10.10;43.72;100388.35;104693;1260;69126;-64
2024/02/29 00:52:39;;;;;;;17.00;5.30;;;;;;;10.09;43.95;100386.27;105096;1262;73379;-64
2024/02/29 00:56:01;;;;;;;10.50;4.80;;;;;;;10.26;43.43;100369.67;104762;1257;61235;-67
2024/02/29 00:59:20;;;;;;;22.30;5.00;;;;;;;10.13;43.67;100379.51;104794;1262;59794;-63
2024/02/29 01:02:39;;;;;;;14.30;5.10;;;;;;;9.70;44.52;100378.27;104639;1260;73945;-64
2024/02/29 01:05:33;;;;;;;10.90;4.40;;;;;;;9.75;44.64;100379.20;104347;1257;70303;-64
2024/02/29 01:08:46;;;;;;;16.10;4.40;;;;;;;9.63;44.63;100380.55;104441;1263;72446;-64
2024/02/29 01:12:05;;;;;;;15.40;4.60;;;;;;;9.73;44.59;100377.66;104441;1261;60570;-64
2024/02/29 01:15:24;;;;;;;8.30;4.00;;;;;;;9.74;44.47;100380.95;104710;1261;60563;-63
2024/02/29 01:18:05;;;;;;;14.30;5.30;;;;;;;9.80;44.82;100373.63;105724;1256;74125;-65
2024/02/29 01:21:19;;;;;;;15.80;4.80;;;;;;;9.94;44.51;100376.38;104065;1278;69808;-63
2024/02/29 01:24:38;;;;;;;13.00;4.90;;;;;;;10.10;44.14;100378.54;103843;1268;73224;-64
2024/02/29 01:27:58;;;;;;;12.60;4.60;;;;;;;10.16;43.82;100375.92;104951;1263;60641;-64
2024/02/29 01:31:23;;;;;;;10.30;5.00;;;;;;;10.21;43.71;100375.60;103807;1269;62248;-63
2024/02/29 01:34:30;;;;;;;11.20;4.90;;;;;;;10.16;43.72;100373.46;105567;1256;74095;-66
2024/02/29 01:37:44;;;;;;;11.40;5.00;;;;;;;10.10;43.97;100369.78;104482;1257;69493;-64
2024/02/29 01:40:35;;;;;;;11.20;5.10;;;;;;;10.08;44.06;100373.18;105028;1254;71452;-65
2024/02/29 01:43:47;;;;;;;12.00;5.30;;;;;;;10.05;44.01;100373.27;106247;1253;64348;-65
2024/02/29 01:46:35;;;;;;;16.90;5.00;;;;;;;10.03;44.10;100375.27;104808;1259;60749;-65
2024/02/29 01:49:48;;;;;;;12.40;5.00;;;;;;;10.04;44.25;100373.63;104935;1259;74096;-65
2024/02/29 01:53:09;;;;;;;11.40;5.40;;;;;;;9.98;44.46;100371.18;105071;1253;69340;-65
2024/02/29 01:56:29;;;;;;;11.80;5.50;;;;;;;9.93;44.57;100370.63;104691;1260;72496;-67
2024/02/29 01:59:04;;;;;;;20.20;5.60;;;;;;;10.04;44.19;100368.91;105365;1256;60646;-67
2024/02/29 02:02:17;;;;;;;12.40;6.20;;;;;;;10.01;44.25;100368.83;104529;1258;60620;-63
2024/02/29 02:05:33;;;;;;;17.70;5.30;;;;;;;9.98;44.00;100366.30;105359;1254;74122;-66
2024/02/29 02:08:47;;;;;;;13.20;5.30;;;;;;;9.17;45.58;100371.77;104484;1255;70234;-66
2024/02/29 02:12:12;;;;;;;19.50;5.70;;;;;;;8.58;47.20;100367.80;104867;1258;71992;-65
2024/02/29 02:15:28;;;;;;;18.80;5.30;;;;;;;8.90;47.25;100364.41;104769;1258;63689;-66
2024/02/29 02:18:47;;;;;;;12.20;4.70;;;;;;;8.92;46.78;100370.98;104966;1258;59974;-64
2024/02/29 02:22:06;;;;;;;16.50;6.00;;;;;;;8.74;47.42;100364.45;104482;1271;74546;-64
2024/02/29 02:25:26;;;;;;;13.40;4.90;;;;;;;8.57;48.15;100362.04;104710;1259;69348;-63
2024/02/29 02:28:45;;;;;;;14.40;5.30;;;;;;;8.53;48.42;100363.55;104655;1267;72844;-64
2024/02/29 02:32:06;;;;;;;11.90;4.60;;;;;;;8.55;48.58;100362.45;105558;1254;61613;-65
2024/02/29 02:35:24;;;;;;;15.00;4.80;;;;;;;8.55;48.42;100362.45;104378;1267;60332;-66
2024/02/29 02:38:44;;;;;;;16.40;5.00;;;;;;;8.54;48.70;100367.70;104788;1258;74071;-66
2024/02/29 02:42:03;;;;;;;11.30;4.40;;;;;;;8.56;48.46;100371.33;106345;1254;71924;-70
2024/02/29 02:45:15;;;;;;;16.30;5.10;;;;;;;8.46;48.99;100372.08;104823;1254;72500;-66
2024/02/29 02:47:58;;;;;;;11.10;5.10;;;;;;;8.47;49.18;100377.64;105018;1256;60642;-66
2024/02/29 02:51:15;;;;;;;10.90;4.30;;;;;;;8.48;49.06;100374.66;106416;1253;60601;-64
2024/02/29 02:54:36;;;;;;;12.80;4.70;;;;;;;8.47;49.03;100371.38;105979;1257;73581;-65
2024/02/29 02:57:55;;;;;;;15.30;4.00;;;;;;;8.48;49.27;100366.64;105541;1258;69663;-65
2024/02/29 03:01:14;;;;;;;12.20;4.30;;;;;;;8.49;49.40;100368.86;105448;1259;72641;-66
2024/02/29 03:04:34;;;;;;;12.10;4.70;;;;;;;8.48;49.65;100364.73;105448;1257;60656;-66
2024/02/29 03:07:55;;;;;;;13.50;4.50;;;;;;;8.41;49.80;100365.73;105368;1253;60506;-67
2024/02/29 03:10:38;;;;;;;7.70;4.20;;;;;;;8.40;49.92;100363.98;105140;1260;73625;-65
2024/02/29 03:13:53;;;;;;;9.60;4.20;;;;;;;8.40;49.75;100365.91;104806;1257;69464;-68
2024/02/29 03:17:19;;;;;;;11.70;4.90;;;;;;;8.46;49.54;100366.00;105404;1254;73218;-64
2024/02/29 03:20:39;;;;;;;12.90;4.90;;;;;;;8.41;49.72;100361.19;104771;1257;60584;-64
2024/02/29 03:23:58;;;;;;;10.70;4.50;;;;;;;8.38;50.05;100365.58;105783;1258;60489;-64
2024/02/29 03:27:18;;;;;;;9.90;4.80;;;;;;;8.37;50.25;100370.69;106061;1254;73610;-64
2024/02/29 03:30:08;;;;;;;10.80;4.20;;;;;;;8.54;49.81;100367.71;105478;1257;70420;-65
2024/02/29 03:33:21;;;;;;;13.90;4.90;;;;;;;8.53;49.80;100368.63;104994;1259;72951;-63
2024/02/29 03:36:43;;;;;;;11.00;4.40;;;;;;;8.29;50.32;100361.25;105527;1254;61564;-63
2024/02/29 03:40:01;;;;;;;13.80;4.20;;;;;;;8.24;50.75;100359.45;105306;1251;60617;-63
2024/02/29 03:43:24;;;;;;;9.60;4.40;;;;;;;8.21;50.73;100356.37;105361;1255;74495;-63
2024/02/29 03:46:43;;;;;;;10.50;4.70;;;;;;;8.05;51.15;100358.62;105067;1258;69593;-63
2024/02/29 03:50:05;;;;;;;8.30;4.10;;;;;;;7.60;52.62;100365.27;105422;1256;72930;-63
2024/02/29 03:53:25;;;;;;;15.30;4.40;;;;;;;7.90;52.71;100364.34;105021;1257;61106;-63
2024/02/29 03:56:09;;;;;;;7.40;4.50;;;;;;;7.99;52.27;100363.11;105496;1253;59712;-63
2024/02/29 03:59:21;;;;;;;13.80;5.20;;;;;;;8.02;52.03;100365.48;104742;1258;73747;-63
2024/02/29 04:02:40;;;;;;;10.60;5.10;;;;;;;8.05;52.03;100371.20;105282;1257;68988;-65
2024/02/29 04:06:02;;;;;;;10.40;5.20;;;;;;;8.03;52.10;100375.60;105121;1258;73370;-64
2024/02/29 04:08:58;;;;;;;12.30;5.20;;;;;;;8.15;51.66;100380.23;104573;1271;60553;-64
2024/02/29 04:12:11;;;;;;;8.50;4.30;;;;;;;8.00;52.14;100381.59;104972;1257;60542;-64
2024/02/29 04:15:30;;;;;;;10.90;4.80;;;;;;;8.05;52.18;100378.88;108274;1254;74073;-63
2024/02/29 04:18:25;;;;;;;11.70;5.20;;;;;;;8.07;52.40;100380.95;107992;1254;69081;-63
2024/02/29 04:21:37;;;;;;;13.10;5.50;;;;;;;8.00;52.23;100381.10;108214;1253;72529;-67
2024/02/29 04:24:55;;;;;;;14.20;4.90;;;;;;;9.22;49.37;100382.33;108234;1253;60585;-65
2024/02/29 04:28:17;;;;;;;13.20;5.10;;;;;;;9.36;48.41;100385.48;108411;1252;60573;-65
2024/02/29 04:31:39;;;;;;;10.60;5.00;;;;;;;9.42;48.03;100393.21;108260;1254;74025;-65
2024/02/29 04:35:00;;;;;;;9.90;4.10;;;;;;;9.49;47.94;100390.39;108266;1254;69850;-65
2024/02/29 04:38:18;;;;;;;13.70;5.30;;;;;;;8.70;49.56;100392.52;108167;1254;72512;-66
2024/02/29 04:41:36;;;;;;;14.20;5.50;;;;;;;8.28;51.38;100397.43;108244;1254;61248;-65
2024/02/29 04:44:54;;;;;;;11.90;5.00;;;;;;;8.22;51.99;100396.86;108264;1253;59525;-65
2024/02/29 04:48:16;;;;;;;15.60;4.60;;;;;;;8.19;52.50;100401.48;108293;1254;72474;-66
2024/02/29 04:51:42;;;;;;;13.40;4.60;;;;;;;8.20;52.78;100407.91;108342;1254;69623;-66
2024/02/29 04:55:03;;;;;;;10.40;4.40;;;;;;;8.18;52.85;100403.41;108239;1254;72461;-66
2024/02/29 04:58:19;;;;;;;7.70;4.50;;;;;;;8.46;52.48;100401.59;108170;1253;62319;-66
2024/02/29 05:01:38;;;;;;;8.00;5.10;;;;;;;9.40;49.38;100401.83;108286;1254;59746;-65
2024/02/29 05:04:58;;;;;;;13.80;5.80;;;;;;;9.49;48.54;100404.04;108291;1254;75672;-64
2024/02/29 05:08:15;;;;;;;10.90;5.10;;;;;;;9.56;48.22;100405.61;108251;1252;68204;-67
2024/02/29 05:11:35;;;;;;;12.80;5.00;;;;;;;9.22;48.79;100399.63;108214;1253;72005;-66
2024/02/29 05:14:53;;;;;;;9.30;4.70;;;;;;;8.57;50.88;100404.35;108231;1254;60728;-71
2024/02/29 05:18:11;;;;;;;12.80;4.20;;;;;;;9.44;49.10;100406.64;108316;1254;59978;-72
2024/02/29 05:21:25;;;;;;;15.40;5.30;;;;;;;9.47;48.78;100406.73;108246;1254;74073;-62
2024/02/29 05:24:45;;;;;;;12.10;5.00;;;;;;;9.59;48.77;100408.16;108271;1254;69509;-67
2024/02/29 05:28:04;;;;;;;15.30;4.90;;;;;;;9.48;49.04;100406.70;108182;1252;72291;-67
2024/02/29 05:31:21;;;;;;;9.00;4.20;;;;;;;9.72;48.41;100406.41;107967;1254;60599;-67
2024/02/29 05:34:27;;;;;;;17.20;4.60;;;;;;;9.68;48.22;100409.33;108389;1254;59856;-64
2024/02/29 05:37:40;;;;;;;13.10;5.20;;;;;;;9.73;48.30;100410.05;108252;1252;73694;-69
2024/02/29 05:40:33;;;;;;;14.60;5.30;;;;;;;9.79;48.05;100410.92;108237;1253;69934;-69
2024/02/29 05:43:47;;;;;;;10.20;4.30;;;;;;;9.84;47.85;100411.69;108205;1253;72671;-68
2024/02/29 05:47:05;;;;;;;17.00;4.70;;;;;;;9.81;48.03;100409.16;107934;1254;60929;-70
2024/02/29 05:50:28;;;;;;;10.90;4.70;;;;;;;9.94;47.86;100411.06;107997;1253;59926;-66
2024/02/29 05:53:49;;;;;;;11.50;4.20;;;;;;;9.96;47.96;100408.90;108256;1253;74042;-67
2024/02/29 05:59:41;;;;;;;12.90;5.50;;;;;;;10.11;47.44;100411.63;101872;1303;616064;-71
2024/02/29 06:02:51;;;;;;;25.50;5.20;;;;;;;10.15;47.61;100421.33;104655;1260;60090;-69
2024/02/29 06:05:27;;;;;;;10.80;4.50;;;;;;;10.19;47.37;100424.19;104705;1260;59882;-67
2024/02/29 06:07:56;;;;;;;12.10;4.80;;;;;;;10.19;47.21;100421.58;104673;1261;72117;-67
2024/02/29 06:10:36;;;;;;;10.50;4.90;;;;;;;10.21;47.01;100418.36;105191;1260;69580;-66
2024/02/29 06:13:56;;;;;;;10.40;4.80;;;;;;;10.22;46.74;100415.52;104334;1264;934630;-66
2024/02/29 06:17:16;;;;;;;10.90;5.00;;;;;;;10.15;46.86;100416.25;105446;1253;61950;-66
2024/02/29 06:20:03;;;;;;;12.80;5.30;;;;;;;10.08;47.17;100418.89;105310;1255;59992;-65
2024/02/29 06:23:19;;;;;;;12.70;4.60;;;;;;;10.16;46.96;100425.35;104663;1259;72169;-65
2024/02/29 06:26:06;;;;;;;8.90;4.80;;;;;;;10.25;46.91;100428.41;104593;1260;69622;-71
2024/02/29 06:29:22;;;;;;;12.80;4.60;;;;;;;10.33;46.53;100423.64;104588;1263;74905;-68
2024/02/29 06:32:48;;;;;;;15.50;4.60;;;;;;;10.42;46.45;100425.48;104824;1261;61281;-66
2024/02/29 06:36:37;;;;;;;14.30;4.20;;;;;;;10.43;46.58;100427.55;104930;1260;60301;-67
2024/02/29 06:39:52;;;;;;;11.10;4.50;;;;;;;10.57;46.56;100429.23;104525;1262;73123;-69
2024/02/29 06:42:40;;;;;;;11.90;4.40;;;;;;;10.70;46.55;100426.21;105126;1259;69776;-69
2024/02/29 06:46:04;;;;;;;8.10;4.50;;;;;;;10.83;46.32;100427.38;105468;1261;72389;-69
2024/02/29 06:48:49;;;;;;;11.80;4.70;;;;;;;10.98;46.23;100425.16;105317;1255;61974;-70
2024/02/29 06:51:28;;;;;;;13.30;4.80;;;;;;;11.11;46.08;100421.92;105605;1255;60215;-69
2024/02/29 06:54:42;;;;;;;15.00;4.50;;;;;;;11.24;45.81;100427.11;105220;1257;73427;-72
2024/02/29 06:57:26;;;;;;;8.60;4.20;;;;;;;11.37;45.48;100434.43;105937;1254;70205;-72
2024/02/29 07:00:39;;;;;;;8.70;4.00;;;;;;;11.41;45.50;100435.52;104602;1260;73510;-72
2024/02/29 07:03:28;;;;;;;18.00;4.00;;;;;;;11.51;45.35;100435.72;105246;1260;61999;-69
2024/02/29 07:05:57;;;;;;;12.40;4.00;;;;;;;11.57;45.37;100433.23;104875;1255;60180;-70
2024/02/29 07:09:09;;;;;;;11.30;3.90;;;;;;;11.63;45.08;100427.73;104537;1276;72770;-70
2024/02/29 07:11:47;;;;;;;7.70;4.40;;;;;;;11.78;45.13;100427.41;105852;1259;70456;-69
2024/02/29 07:14:49;;;;;;;9.80;4.50;;;;;;;11.87;45.14;100430.78;105292;1262;72518;-69
2024/02/29 07:17:29;;;;;;;10.70;4.00;;;;;;;12.02;44.80;100428.16;105511;1255;61117;-68
2024/02/29 07:20:48;;;;;;;17.40;4.30;;;;;;;12.10;44.91;100425.77;105392;1254;60025;-70
2024/02/29 07:23:39;;;;;;;6.80;4.20;;;;;;;12.19;44.71;100423.48;104497;1253;73107;-66
2024/02/29 07:26:57;;;;;;;8.80;3.30;;;;;;;12.29;44.31;100418.57;104759;1255;70032;-67
2024/02/29 07:29:48;;;;;;;9.90;3.60;;;;;;;12.28;43.77;100419.98;104642;1273;73362;-66
2024/02/29 07:33:08;;;;;;;10.90;4.00;;;;;;;12.27;44.12;100420.74;104589;1262;60932;-64
2024/02/29 07:35:51;;;;;;;9.70;3.60;;;;;;;12.41;44.09;100424.61;104892;1261;60092;-66
2024/02/29 07:38:46;;;;;;;11.60;3.80;;;;;;;12.50;43.98;100423.20;104756;1262;72836;-69
2024/02/29 07:42:07;;;;;;;11.40;4.50;;;;;;;12.55;44.16;100423.91;105322;1259;69085;-68
2024/02/29 07:44:45;;;;;;;11.60;4.20;;;;;;;12.59;43.88;100421.83;105897;1259;73511;-69
2024/02/29 07:47:44;;;;;;;;;;;;;;;12.68;43.79;100420.23;105475;1258;60988;-66
2024/02/29 07:51:11;;;;;;;13.60;3.70;;;;;;;12.70;43.95;100417.33;105740;1259;61628;-67
2024/02/29 07:53:46;;;;;;;16.40;4.10;;;;;;;12.86;43.86;100425.86;104534;1255;73489;-68
2024/02/29 07:56:30;;;;;;;11.90;3.70;;;;;;;13.01;43.47;100433.70;105058;1259;68425;-66
2024/02/29 08:01:12;;;;;;;11.50;4.10;;;;;;;12.58;45.71;100436.04;102577;1283;602028;-68
2024/02/29 08:04:33;;;;;;;12.40;4.20;;;;;;;13.73;42.30;100433.40;104599;1261;63128;-68
2024/02/29 08:07:48;;;;;;;12.80;4.50;;;;;;;13.64;42.48;100431.66;104815;1260;63337;-66
2024/02/29 08:11:56;;;;;;;12.50;3.50;;;;;;;13.71;42.60;100427.13;104828;1259;72098;-66
2024/02/29 08:15:17;;;;;;;10.40;4.10;;;;;;;13.91;42.33;100431.00;104756;1262;748673;-69
2024/02/29 08:18:39;;;;;;;9.00;4.10;;;;;;;13.87;42.50;100428.73;105178;1261;72133;-71
2024/02/29 08:21:58;;;;;;;13.20;5.20;;;;;;;14.02;41.64;100428.92;104266;1261;60935;-70
2024/02/29 08:25:20;;;;;;;13.80;5.00;;;;;;;14.07;41.96;100426.10;104607;1262;60896;-70
2024/02/29 08:28:43;;;;;;;20.20;4.30;;;;;;;14.09;41.92;100421.92;104586;1256;72282;-72
2024/02/29 08:32:03;;;;;;;9.90;4.20;;;;;;;14.09;41.80;100424.95;105296;1260;70732;-71
2024/02/29 08:35:34;;;;;;;16.00;4.70;;;;;;;14.07;41.63;100422.73;104773;1256;72924;-70
2024/02/29 08:38:50;;;;;;;10.50;3.90;;;;;;;14.12;42.00;100424.27;105134;1262;60825;-67
2024/02/29 08:42:11;;;;;;;7.70;4.20;;;;;;;14.34;41.83;100423.42;105367;1255;60032;-66
2024/02/29 08:44:58;;;;;;;9.50;3.90;;;;;;;14.39;41.72;100418.25;105056;1260;73281;-68
2024/02/29 08:48:12;;;;;;;11.60;4.00;;;;;;;14.48;41.79;100413.63;104747;1263;69851;-69
2024/02/29 08:51:31;;;;;;;10.40;4.00;;;;;;;14.49;41.71;100413.08;105619;1261;75402;-67
2024/02/29 08:54:56;;;;;;;13.10;4.70;;;;;;;14.57;41.55;100419.38;104853;1257;62941;-67
2024/02/29 08:58:10;;;;;;;12.30;4.60;;;;;;;14.73;41.28;100416.52;104918;1257;62661;-66
2024/02/29 09:02:12;;;;;;;14.10;4.50;;;;;;;14.71;40.59;100414.33;104911;1257;73601;-65
2024/02/29 09:05:36;;;;;;;15.50;5.60;;;;;;;14.84;40.79;100414.95;104631;1263;69628;-65
2024/02/29 09:08:55;;;;;;;12.70;4.60;;;;;;;14.99;40.95;100414.61;104991;1262;75183;-66
2024/02/29 09:12:17;;;;;;;13.10;4.50;;;;;;;15.06;40.46;100417.95;105448;1259;61678;-63
2024/02/29 09:15:33;;;;;;;9.40;4.60;;;;;;;15.12;40.55;100411.85;105749;1257;59948;-64
2024/02/29 09:18:53;;;;;;;11.40;4.40;;;;;;;15.27;40.58;100410.92;105684;1258;73267;-64
2024/02/29 09:22:16;;;;;;;10.00;4.20;;;;;;;15.48;40.47;100415.14;105097;1262;69490;-65
2024/02/29 09:25:36;;;;;;;16.60;6.20;;;;;;;15.61;39.63;100417.51;105147;1261;71609;-65
2024/02/29 09:28:56;;;;;;;13.00;4.30;;;;;;;15.65;39.55;100410.23;105090;1262;59778;-64
2024/02/29 09:32:16;;;;;;;12.40;3.80;;;;;;;15.84;39.72;100408.05;104938;1256;60312;-64
2024/02/29 09:35:35;;;;;;;8.20;3.60;;;;;;;16.00;39.53;100412.48;105072;1262;73958;-65
2024/02/29 09:38:56;;;;;;;12.30;5.10;;;;;;;15.90;38.74;100410.73;104519;1260;71847;-65
2024/02/29 09:42:15;;;;;;;11.40;4.20;;;;;;;16.06;39.21;100409.55;105091;1262;73416;-63
2024/02/29 09:45:35;;;;;;;10.00;4.10;;;;;;;16.23;39.34;100414.80;104563;1265;59811;-64
2024/02/29 09:48:54;;;;;;;9.50;4.50;;;;;;;16.29;38.72;100411.48;105009;1257;61863;-64
2024/02/29 09:52:13;;;;;;;15.30;4.40;;;;;;;16.32;39.08;100411.86;105782;1259;74098;-66
2024/02/29 09:55:32;;;;;;;8.00;4.00;;;;;;;16.28;39.24;100411.89;104623;1259;70887;-66
2024/02/29 09:58:17;;;;;;;15.20;4.40;;;;;;;16.27;39.33;100408.21;105883;1258;73155;-64
2024/02/29 10:00:58;;;;;;;10.50;4.50;;;;;;;16.28;39.45;100408.35;104339;1254;59892;-64
2024/02/29 10:03:27;;;;;;;13.40;4.50;;;;;;;15.61;39.84;100408.11;105279;1252;59858;-63
2024/02/29 10:06:01;;;;;;;14.40;4.70;;;;;;;15.72;40.22;100403.12;104554;1256;73068;-62
2024/02/29 10:09:14;;;;;;;12.10;4.40;;;;;;;16.21;38.76;100404.45;104478;1268;72167;-62
2024/02/29 10:12:33;;;;;;;10.10;4.70;;;;;;;16.45;38.59;100399.98;105530;1258;73469;-63
2024/02/29 10:15:52;;;;;;;11.30;4.70;;;;;;;16.69;38.52;100394.95;104901;1261;59740;-64
2024/02/29 10:19:11;;;;;;;14.10;4.30;;;;;;;16.99;38.34;100398.08;104546;1263;60249;-64
2024/02/29 10:22:32;;;;;;;10.80;4.40;;;;;;;17.08;38.13;100398.73;104507;1270;72151;-68
2024/02/29 10:25:51;;;;;;;10.10;4.20;;;;;;;17.24;38.20;100406.73;105056;1264;69735;-65
2024/02/29 10:29:04;;;;;;;12.40;4.10;;;;;;;17.23;38.07;100400.54;105453;1254;75323;-66
2024/02/29 10:32:17;;;;;;;13.30;4.90;;;;;;;16.99;38.49;100403.02;105255;1259;60422;-66
2024/02/29 10:35:36;;;;;;;13.70;4.80;;;;;;;17.35;37.37;100397.35;105837;1252;61222;-65
2024/02/29 10:38:52;;;;;;;11.20;4.20;;;;;;;17.40;37.59;100395.98;105537;1257;73522;-66
2024/02/29 10:41:24;;;;;;;15.10;4.60;;;;;;;17.54;37.43;100385.25;105370;1259;69810;-67
2024/02/29 10:44:36;;;;;;;9.80;4.30;;;;;;;17.57;36.81;100382.40;104966;1252;72880;-67
2024/02/29 10:47:56;;;;;;;11.00;4.20;;;;;;;17.43;36.47;100375.08;104949;1259;59774;-67
2024/02/29 10:51:16;;;;;;;8.70;4.60;;;;;;;17.54;36.73;100368.23;105167;1259;59739;-66
2024/02/29 10:54:39;;;;;;;10.80;4.40;;;;;;;17.76;36.23;100366.93;104908;1253;73572;-65
2024/02/29 10:57:52;;;;;;;10.40;4.40;;;;;;;17.75;36.39;100346.61;105494;1253;70527;-68
2024/02/29 11:01:12;;;;;;;10.00;3.90;;;;;;;17.91;36.56;100369.41;105576;1259;71911;-68
2024/02/29 11:04:25;;;;;;;14.10;4.30;;;;;;;17.76;36.72;100366.70;104282;1260;59730;-67
2024/02/29 11:07:38;;;;;;;11.20;4.70;;;;;;;17.76;37.17;100366.40;104565;1265;60160;-70
2024/02/29 11:10:36;;;;;;;14.80;5.60;;;;;;;18.18;36.88;100360.24;105418;1258;71956;-67
2024/02/29 11:13:48;;;;;;;12.00;5.70;;;;;;;18.27;37.07;100355.63;104926;1253;72999;-68
2024/02/29 11:17:07;;;;;;;10.10;4.90;;;;;;;18.49;36.69;100350.81;105035;1255;73198;-65
2024/02/29 11:20:19;;;;;;;9.70;4.70;;;;;;;18.57;36.15;100353.90;105284;1254;60017;-66
2024/02/29 11:23:38;;;;;;;9.60;5.60;;;;;;;18.62;36.39;100347.85;105470;1260;60930;-69
2024/02/29 11:26:57;;;;;;;13.50;5.20;;;;;;;18.70;36.33;100346.46;105123;1254;73813;-67
2024/02/29 11:30:16;;;;;;;15.10;4.90;;;;;;;18.90;36.11;100347.64;105449;1256;70192;-68
2024/02/29 11:33:36;;;;;;;12.60;5.20;;;;;;;18.92;36.05;100345.77;104919;1259;73038;-66
2024/02/29 11:36:57;;;;;;;15.70;5.70;;;;;;;19.00;36.12;100347.52;104712;1273;59847;-66
2024/02/29 11:40:17;;;;;;;11.90;5.40;;;;;;;19.24;35.64;100346.11;104578;1259;60282;-64
2024/02/29 11:43:38;;;;;;;10.60;5.10;;;;;;;19.44;35.19;100345.10;105160;1257;73018;-68
2024/02/29 11:46:57;;;;;;;9.50;5.00;;;;;;;19.52;35.06;100345.59;104805;1264;70250;-68
2024/02/29 11:50:01;;;;;;;11.60;5.50;;;;;;;19.45;35.22;100347.71;104465;1258;72475;-68
2024/02/29 11:53:13;;;;;;;13.20;5.10;;;;;;;19.42;34.33;100349.49;104797;1254;59881;-70
2024/02/29 11:56:33;;;;;;;9.70;4.70;;;;;;;19.31;34.68;100347.95;104769;1256;62599;-68
2024/02/29 11:59:53;;;;;;;9.50;4.50;;;;;;;19.36;34.49;100337.49;104639;1253;74279;-67
2024/02/29 12:03:12;;;;;;;11.50;4.60;;;;;;;19.37;34.31;100334.88;106002;1254;68861;-67
2024/02/29 12:06:00;;;;;;;15.60;4.30;;;;;;;19.14;34.31;100333.42;104736;1260;72514;-62
2024/02/29 12:09:14;;;;;;;11.50;4.40;;;;;;;18.94;34.86;100331.90;105160;1263;60102;-65
2024/02/29 12:12:33;;;;;;;9.90;4.20;;;;;;;19.18;34.20;100322.01;104571;1258;59727;-65
2024/02/29 12:15:39;;;;;;;8.30;3.90;;;;;;;18.99;34.85;100318.96;105063;1258;73352;-66
2024/02/29 12:18:51;;;;;;;10.30;4.90;;;;;;;18.95;34.94;100312.48;104569;1272;70042;-66
2024/02/29 12:22:11;;;;;;;11.60;5.00;;;;;;;19.02;34.86;100315.08;104900;1258;72770;-67
2024/02/29 12:25:30;;;;;;;11.30;5.20;;;;;;;19.36;34.75;100311.84;104533;1254;64359;-67
2024/02/29 12:28:31;;;;;;;14.30;5.90;;;;;;;19.49;34.75;100304.76;104596;1255;59627;-66
2024/02/29 12:31:43;;;;;;;10.70;5.40;;;;;;;19.42;34.90;100305.91;104508;1254;73281;-66
2024/02/29 12:35:04;;;;;;;9.90;5.00;;;;;;;19.46;34.75;100300.18;105197;1258;70505;-65
2024/02/29 12:38:23;;;;;;;9.80;5.30;;;;;;;19.55;34.56;100296.88;104491;1255;71801;-64
2024/02/29 12:41:26;;;;;;;19.80;5.70;;;;;;;19.64;34.72;100296.61;105177;1258;62491;-63
2024/02/29 12:43:59;;;;;;;17.90;5.10;;;;;;;19.48;34.71;100288.28;105309;1257;62800;-66
2024/02/29 12:47:13;;;;;;;15.20;4.90;;;;;;;19.34;34.96;100288.71;104639;1258;72887;-64
2024/02/29 12:50:32;;;;;;;14.20;4.70;;;;;;;19.35;35.03;100297.92;104640;1257;68472;-65
2024/02/29 12:53:53;;;;;;;20.70;5.30;;;;;;;19.47;34.45;100297.42;104433;1258;72709;-65
2024/02/29 12:56:53;;;;;;;12.20;5.00;;;;;;;19.55;34.46;100292.79;104775;1255;60658;-64
2024/02/29 13:00:05;;;;;;;15.60;5.80;;;;;;;19.61;34.51;100289.52;105171;1259;60094;-65
2024/02/29 13:03:25;;;;;;;11.40;6.10;;;;;;;19.70;34.59;100291.55;105302;1255;72821;-65
2024/02/29 13:06:00;;;;;;;10.60;5.40;;;;;;;19.77;34.29;100288.40;104823;1260;69649;-64
2024/02/29 13:09:13;;;;;;;14.60;5.90;;;;;;;19.92;34.20;100285.60;104865;1257;72778;-64
2024/02/29 13:12:34;;;;;;;19.40;9.10;;;;;;;20.09;33.93;100276.02;104535;1252;60476;-64
2024/02/29 13:15:55;;;;;;;14.90;6.60;;;;;;;20.08;33.67;100272.85;104811;1259;59941;-65
2024/02/29 13:19:14;;;;;;;12.20;5.90;;;;;;;20.08;33.72;100276.61;105676;1253;73278;-64
2024/02/29 13:22:34;;;;;;;12.00;6.70;;;;;;;20.08;33.87;100270.73;105258;1257;70690;-64
2024/02/29 13:25:53;;;;;;;14.00;6.60;;;;;;;20.23;33.70;100274.80;104968;1255;75234;-66
2024/02/29 13:29:12;;;;;;;12.40;6.00;;;;;;;20.25;33.59;100286.44;105637;1254;60439;-61
2024/02/29 13:32:31;;;;;;;12.90;5.90;;;;;;;20.32;33.44;100289.83;104922;1255;60639;-64
2024/02/29 13:35:43;;;;;;;14.20;6.30;;;;;;;20.24;33.69;100290.21;104707;1258;74877;-62
2024/02/29 13:38:30;;;;;;;16.70;7.50;;;;;;;20.56;33.22;100293.58;104633;1252;69792;-63
2024/02/29 13:41:45;;;;;;;18.60;8.40;;;;;;;20.44;33.50;100295.48;104914;1267;72627;-62
2024/02/29 13:45:03;;;;;;;14.30;8.20;;;;;;;20.48;33.46;100296.78;104437;1257;60467;-63
2024/02/29 13:48:22;;;;;;;16.80;8.50;;;;;;;20.88;32.82;100297.09;104916;1257;60572;-63
2024/02/29 13:51:41;;;;;;;16.30;10.70;;;;;;;20.70;32.98;100293.97;105240;1254;73963;-62
2024/02/29 13:54:58;;;;;;;13.40;8.50;;;;;;;20.61;32.86;100292.00;104837;1257;70206;-62
2024/02/29 13:58:16;;;;;;;17.90;8.80;;;;;;;20.40;33.18;100286.70;104749;1257;73315;-63
2024/02/29 14:01:35;;;;;;;15.30;7.10;;;;;;;20.48;32.96;100283.86;104525;1261;63263;-63
2024/02/29 14:04:54;;;;;;;18.10;7.50;;;;;;;20.33;33.20;100282.21;104706;1257;60910;-63
2024/02/29 14:08:15;;;;;;;15.10;5.80;;;;;;;20.56;32.81;100280.05;104990;1255;74111;-63
2024/02/29 14:11:35;;;;;;;12.70;6.10;;;;;;;20.65;32.68;100281.13;105294;1253;69112;-64
2024/02/29 14:14:54;;;;;;;12.70;5.90;;;;;;;20.80;32.22;100278.29;104586;1257;72738;-64
2024/02/29 14:18:13;;;;;;;11.50;6.20;;;;;;;20.66;32.11;100280.03;104388;1264;61237;-65
2024/02/29 14:21:34;;;;;;;14.30;6.60;;;;;;;20.60;32.03;100289.20;104810;1253;60914;-67
2024/02/29 14:24:52;;;;;;;13.50;6.90;;;;;;;20.36;32.26;100283.98;104846;1254;73715;-67
2024/02/29 14:28:13;;;;;;;13.60;5.80;;;;;;;20.32;32.62;100287.16;105230;1253;70205;-66
2024/02/29 14:31:33;;;;;;;11.00;6.00;;;;;;;20.18;32.71;100286.17;104487;1257;73992;-64
2024/02/29 14:34:53;;;;;;;11.50;7.00;;;;;;;20.16;33.24;100285.27;104217;1254;60993;-65
2024/02/29 14:38:12;;;;;;;18.50;8.50;;;;;;;19.97;33.98;100283.44;104554;1257;60475;-66
2024/02/29 14:41:35;;;;;;;19.60;7.10;;;;;;;19.83;34.77;100286.79;104841;1254;74837;-67
2024/02/29 14:44:50;;;;;;;10.60;7.10;;;;;;;19.65;35.24;100287.29;104831;1257;69232;-66